sensor_id;sensor_type;location;lat;lon;timestamp;pressure;altitude;pressure_sealevel;temperature;humidity
11038;BME280;5572;49.540;11.932;2023-02-26T00:01:39;95681.22;;;-0.78;100.00
11038;BME280;5572;49.540;11.932;2023-02-26T00:04:07;95684.81;;;-0.68;100.00
11038;BME280;5572;49.540;11.932;2023-02-26T00:06:36;95694.31;;;-0.72;100.00
11038;BME280;5572;49.540;11.932;2023-02-26T00:09:03;95706.75;;;-0.72;100.00
11038;BME280;5572;49.540;11.932;2023-02-26T00:11:31;95699.47;;;-0.82;100.00
11038;BME280;5572;49.540;11.932;2023-02-26T00:13:58;95704.09;;;-0.72;100.00
11038;BME280;5572;49.540;11.932;2023-02-26T00:16:27;95710.53;;;-0.85;100.00
11038;BME280;5572;49.540;11.932;2023-02-26T00:18:56;95708.22;;;-0.81;100.00
11038;BME280;5572;49.540;11.932;2023-02-26T00:21:26;95723.47;;;-0.88;100.00
11038;BME280;5572;49.540;11.932;2023-02-26T00:23:53;95729.81;;;-0.89;100.00
11038;BME280;5572;49.540;11.932;2023-02-26T00:26:22;95730.06;;;-0.90;100.00
11038;BME280;5572;49.540;11.932;2023-02-26T00:28:49;95726.69;;;-0.86;100.00
11038;BME280;5572;49.540;11.932;2023-02-26T00:31:17;95733.50;;;-0.90;100.00
11038;BME280;5572;49.540;11.932;2023-02-26T00:33:45;95744.19;;;-1.01;100.00
11038;BME280;5572;49.540;11.932;2023-02-26T00:36:20;95763.34;;;-1.11;100.00
11038;BME280;5572;49.540;11.932;2023-02-26T00:38:58;95750.81;;;-1.15;100.00
11038;BME280;5572;49.540;11.932;2023-02-26T00:41:28;95770.53;;;-1.23;100.00
11038;BME280;5572;49.540;11.932;2023-02-26T00:43:55;95778.59;;;-1.29;100.00
11038;BME280;5572;49.540;11.932;2023-02-26T00:46:32;95794.75;;;-1.31;100.00
11038;BME280;5572;49.540;11.932;2023-02-26T00:49:08;95791.66;;;-1.39;100.00
11038;BME280;5572;49.540;11.932;2023-02-26T00:51:47;95795.91;;;-1.38;100.00
11038;BME280;5572;49.540;11.932;2023-02-26T00:54:18;95807.91;;;-1.36;100.00
11038;BME280;5572;49.540;11.932;2023-02-26T00:56:45;95803.53;;;-1.42;100.00
11038;BME280;5572;49.540;11.932;2023-02-26T00:59:12;95823.16;;;-1.54;100.00
11038;BME280;5572;49.540;11.932;2023-02-26T01:01:39;95828.13;;;-1.58;100.00
11038;BME280;5572;49.540;11.932;2023-02-26T01:04:06;95824.75;;;-1.65;100.00
11038;BME280;5572;49.540;11.932;2023-02-26T01:06:35;95824.31;;;-1.62;100.00
11038;BME280;5572;49.540;11.932;2023-02-26T01:09:13;95831.78;;;-1.59;100.00
11038;BME280;5572;49.540;11.932;2023-02-26T01:11:42;95838.81;;;-1.64;100.00
11038;BME280;5572;49.540;11.932;2023-02-26T01:14:08;95863.38;;;-1.80;100.00
11038;BME280;5572;49.540;11.932;2023-02-26T01:16:41;95858.19;;;-1.86;100.00
11038;BME280;5572;49.540;11.932;2023-02-26T01:19:22;95864.72;;;-1.89;100.00
11038;BME280;5572;49.540;11.932;2023-02-26T01:21:54;95884.56;;;-2.32;100.00
11038;BME280;5572;49.540;11.932;2023-02-26T01:24:23;95891.53;;;-2.08;100.00
11038;BME280;5572;49.540;11.932;2023-02-26T01:26:51;95887.84;;;-2.07;100.00
11038;BME280;5572;49.540;11.932;2023-02-26T01:29:19;95880.44;;;-2.17;100.00
11038;BME280;5572;49.540;11.932;2023-02-26T01:31:49;95863.34;;;-2.55;100.00
11038;BME280;5572;49.540;11.932;2023-02-26T01:34:21;95887.19;;;-2.44;100.00
11038;BME280;5572;49.540;11.932;2023-02-26T01:36:53;95889.59;;;-2.42;100.00
11038;BME280;5572;49.540;11.932;2023-02-26T01:39:28;95891.44;;;-2.43;100.00
11038;BME280;5572;49.540;11.932;2023-02-26T01:42:00;95890.16;;;-2.52;100.00
11038;BME280;5572;49.540;11.932;2023-02-26T01:44:37;95896.38;;;-2.46;100.00
11038;BME280;5572;49.540;11.932;2023-02-26T01:47:14;95883.09;;;-2.58;100.00
11038;BME280;5572;49.540;11.932;2023-02-26T01:49:43;95889.91;;;-2.50;100.00
11038;BME280;5572;49.540;11.932;2023-02-26T01:55:07;95890.69;;;-2.61;100.00
11038;BME280;5572;49.540;11.932;2023-02-26T01:57:34;95896.19;;;-2.62;100.00
11038;BME280;5572;49.540;11.932;2023-02-26T02:00:01;95901.53;;;-2.51;100.00
11038;BME280;5572;49.540;11.932;2023-02-26T02:02:28;95892.88;;;-2.58;100.00
11038;BME280;5572;49.540;11.932;2023-02-26T02:04:55;95898.19;;;-2.58;100.00
11038;BME280;5572;49.540;11.932;2023-02-26T02:07:21;95901.81;;;-2.70;100.00
11038;BME280;5572;49.540;11.932;2023-02-26T02:09:48;95911.72;;;-2.66;100.00
11038;BME280;5572;49.540;11.932;2023-02-26T02:12:24;95905.00;;;-2.68;100.00
11038;BME280;5572;49.540;11.932;2023-02-26T02:15:03;95916.50;;;-2.74;100.00
11038;BME280;5572;49.540;11.932;2023-02-26T02:17:40;95926.63;;;-2.71;100.00
11038;BME280;5572;49.540;11.932;2023-02-26T02:20:27;95909.38;;;-2.92;100.00
11038;BME280;5572;49.540;11.932;2023-02-26T02:23:09;95940.66;;;-2.71;100.00
11038;BME280;5572;49.540;11.932;2023-02-26T02:26:00;95938.38;;;-2.67;100.00
11038;BME280;5572;49.540;11.932;2023-02-26T02:28:43;95938.94;;;-2.65;100.00
11038;BME280;5572;49.540;11.932;2023-02-26T02:31:21;95933.69;;;-2.83;100.00
11038;BME280;5572;49.540;11.932;2023-02-26T02:33:54;95944.84;;;-2.81;100.00
11038;BME280;5572;49.540;11.932;2023-02-26T02:36:28;95945.88;;;-2.82;100.00
11038;BME280;5572;49.540;11.932;2023-02-26T02:38:59;95933.78;;;-2.90;100.00
11038;BME280;5572;49.540;11.932;2023-02-26T02:41:31;95950.72;;;-2.79;100.00
11038;BME280;5572;49.540;11.932;2023-02-26T02:44:00;95954.84;;;-2.83;100.00
11038;BME280;5572;49.540;11.932;2023-02-26T02:46:30;95939.78;;;-2.83;100.00
11038;BME280;5572;49.540;11.932;2023-02-26T02:49:00;95938.69;;;-2.93;100.00
11038;BME280;5572;49.540;11.932;2023-02-26T02:51:30;95938.34;;;-2.97;100.00
11038;BME280;5572;49.540;11.932;2023-02-26T02:54:02;95945.72;;;-2.87;100.00
11038;BME280;5572;49.540;11.932;2023-02-26T02:56:34;95948.59;;;-2.89;100.00
11038;BME280;5572;49.540;11.932;2023-02-26T02:59:05;95958.81;;;-2.92;100.00
11038;BME280;5572;49.540;11.932;2023-02-26T03:01:38;95950.44;;;-3.07;100.00
11038;BME280;5572;49.540;11.932;2023-02-26T03:04:08;95959.69;;;-3.16;100.00
11038;BME280;5572;49.540;11.932;2023-02-26T03:06:36;95961.97;;;-3.20;100.00
11038;BME280;5572;49.540;11.932;2023-02-26T03:09:04;95963.22;;;-3.22;100.00
11038;BME280;5572;49.540;11.932;2023-02-26T03:11:31;95961.38;;;-3.22;100.00
11038;BME280;5572;49.540;11.932;2023-02-26T03:13:58;95949.47;;;-3.13;100.00
11038;BME280;5572;49.540;11.932;2023-02-26T03:16:34;95958.00;;;-3.11;100.00
11038;BME280;5572;49.540;11.932;2023-02-26T03:19:12;95955.53;;;-3.06;100.00
11038;BME280;5572;49.540;11.932;2023-02-26T03:21:46;95953.91;;;-3.07;100.00
11038;BME280;5572;49.540;11.932;2023-02-26T03:24:17;95952.66;;;-3.04;100.00
11038;BME280;5572;49.540;11.932;2023-02-26T03:26:49;95944.84;;;-2.99;100.00
11038;BME280;5572;49.540;11.932;2023-02-26T03:29:24;95935.81;;;-2.92;100.00
11038;BME280;5572;49.540;11.932;2023-02-26T03:31:56;95931.19;;;-2.96;100.00
11038;BME280;5572;49.540;11.932;2023-02-26T03:34:29;95946.34;;;-3.03;100.00
11038;BME280;5572;49.540;11.932;2023-02-26T03:37:01;95946.84;;;-3.13;100.00
11038;BME280;5572;49.540;11.932;2023-02-26T03:39:34;95946.75;;;-2.88;100.00
11038;BME280;5572;49.540;11.932;2023-02-26T03:42:07;95941.84;;;-2.85;100.00
11038;BME280;5572;49.540;11.932;2023-02-26T03:47:14;95941.00;;;-2.67;100.00
11038;BME280;5572;49.540;11.932;2023-02-26T03:49:44;95930.59;;;-2.62;100.00
11038;BME280;5572;49.540;11.932;2023-02-26T03:52:12;95929.91;;;-2.58;100.00
11038;BME280;5572;49.540;11.932;2023-02-26T03:54:43;95932.19;;;-2.61;100.00
11038;BME280;5572;49.540;11.932;2023-02-26T03:57:11;95933.63;;;-2.77;100.00
11038;BME280;5572;49.540;11.932;2023-02-26T03:59:37;95934.09;;;-2.68;100.00
11038;BME280;5572;49.540;11.932;2023-02-26T04:02:08;95930.44;;;-2.67;100.00
11038;BME280;5572;49.540;11.932;2023-02-26T04:04:43;95934.25;;;-2.63;100.00
11038;BME280;5572;49.540;11.932;2023-02-26T04:07:15;95934.25;;;-2.63;100.00
11038;BME280;5572;49.540;11.932;2023-02-26T04:09:42;95927.97;;;-2.51;100.00
11038;BME280;5572;49.540;11.932;2023-02-26T04:12:09;95930.09;;;-2.42;100.00
11038;BME280;5572;49.540;11.932;2023-02-26T04:14:36;95928.59;;;-2.38;100.00
11038;BME280;5572;49.540;11.932;2023-02-26T04:17:03;95929.50;;;-2.44;100.00
11038;BME280;5572;49.540;11.932;2023-02-26T04:19:30;95926.97;;;-2.39;100.00
11038;BME280;5572;49.540;11.932;2023-02-26T04:21:56;95925.16;;;-2.38;100.00
11038;BME280;5572;49.540;11.932;2023-02-26T04:24:24;95925.28;;;-2.33;100.00
11038;BME280;5572;49.540;11.932;2023-02-26T04:26:51;95917.38;;;-2.22;100.00
11038;BME280;5572;49.540;11.932;2023-02-26T04:29:17;95917.22;;;-2.38;100.00
11038;BME280;5572;49.540;11.932;2023-02-26T04:31:44;95921.28;;;-2.24;100.00
11038;BME280;5572;49.540;11.932;2023-02-26T04:34:10;95921.78;;;-2.16;100.00
11038;BME280;5572;49.540;11.932;2023-02-26T04:36:37;95913.97;;;-2.11;100.00
11038;BME280;5572;49.540;11.932;2023-02-26T04:39:04;95915.94;;;-2.06;100.00
11038;BME280;5572;49.540;11.932;2023-02-26T04:41:32;95911.34;;;-1.99;100.00
11038;BME280;5572;49.540;11.932;2023-02-26T04:43:58;95908.44;;;-1.98;100.00
11038;BME280;5572;49.540;11.932;2023-02-26T04:46:25;95902.84;;;-1.90;100.00
11038;BME280;5572;49.540;11.932;2023-02-26T04:48:51;95898.34;;;-1.89;100.00
11038;BME280;5572;49.540;11.932;2023-02-26T04:51:18;95899.13;;;-2.00;100.00
11038;BME280;5572;49.540;11.932;2023-02-26T04:53:45;95893.59;;;-2.10;100.00
11038;BME280;5572;49.540;11.932;2023-02-26T04:56:11;95907.75;;;-2.16;100.00
11038;BME280;5572;49.540;11.932;2023-02-26T04:58:39;95902.81;;;-2.01;100.00
11038;BME280;5572;49.540;11.932;2023-02-26T05:01:06;95900.16;;;-2.13;100.00
11038;BME280;5572;49.540;11.932;2023-02-26T05:03:32;95906.34;;;-2.19;100.00
11038;BME280;5572;49.540;11.932;2023-02-26T05:05:59;95908.69;;;-2.11;100.00
11038;BME280;5572;49.540;11.932;2023-02-26T05:08:26;95899.66;;;-2.21;100.00
11038;BME280;5572;49.540;11.932;2023-02-26T05:10:52;95903.91;;;-2.20;100.00
11038;BME280;5572;49.540;11.932;2023-02-26T05:13:19;95894.72;;;-2.18;100.00
11038;BME280;5572;49.540;11.932;2023-02-26T05:15:47;95892.66;;;-2.16;100.00
11038;BME280;5572;49.540;11.932;2023-02-26T05:18:14;95899.22;;;-2.07;100.00
11038;BME280;5572;49.540;11.932;2023-02-26T05:20:40;95906.22;;;-2.12;100.00
11038;BME280;5572;49.540;11.932;2023-02-26T05:23:07;95903.72;;;-2.07;100.00
11038;BME280;5572;49.540;11.932;2023-02-26T05:25:33;95909.69;;;-2.12;100.00
11038;BME280;5572;49.540;11.932;2023-02-26T05:28:00;95909.59;;;-2.05;100.00
11038;BME280;5572;49.540;11.932;2023-02-26T05:30:26;95906.28;;;-2.01;100.00
11038;BME280;5572;49.540;11.932;2023-02-26T05:32:54;95909.72;;;-2.00;100.00
11038;BME280;5572;49.540;11.932;2023-02-26T05:35:21;95916.28;;;-2.03;100.00
11038;BME280;5572;49.540;11.932;2023-02-26T05:37:47;95915.00;;;-2.12;100.00
11038;BME280;5572;49.540;11.932;2023-02-26T05:40:14;95901.97;;;-2.25;100.00
11038;BME280;5572;49.540;11.932;2023-02-26T05:42:40;95909.63;;;-2.35;100.00
11038;BME280;5572;49.540;11.932;2023-02-26T05:45:08;95904.41;;;-2.53;100.00
11038;BME280;5572;49.540;11.932;2023-02-26T05:47:35;95921.16;;;-2.58;100.00
11038;BME280;5572;49.540;11.932;2023-02-26T05:50:04;95910.66;;;-2.36;100.00
11038;BME280;5572;49.540;11.932;2023-02-26T05:52:31;95920.75;;;-2.44;100.00
11038;BME280;5572;49.540;11.932;2023-02-26T05:54:57;95922.06;;;-2.64;100.00
11038;BME280;5572;49.540;11.932;2023-02-26T05:57:25;95950.75;;;-2.50;100.00
11038;BME280;5572;49.540;11.932;2023-02-26T05:59:51;95935.03;;;-2.45;100.00
11038;BME280;5572;49.540;11.932;2023-02-26T06:02:18;95955.38;;;-2.46;100.00
11038;BME280;5572;49.540;11.932;2023-02-26T06:04:45;95954.94;;;-2.43;100.00
11038;BME280;5572;49.540;11.932;2023-02-26T06:07:13;95960.13;;;-2.36;100.00
11038;BME280;5572;49.540;11.932;2023-02-26T06:09:40;95966.66;;;-2.39;100.00
11038;BME280;5572;49.540;11.932;2023-02-26T06:12:06;95970.13;;;-2.38;100.00
11038;BME280;5572;49.540;11.932;2023-02-26T06:14:34;95972.91;;;-2.33;100.00
11038;BME280;5572;49.540;11.932;2023-02-26T06:17:00;95976.03;;;-2.25;100.00
11038;BME280;5572;49.540;11.932;2023-02-26T06:19:27;95978.72;;;-2.13;100.00
11038;BME280;5572;49.540;11.932;2023-02-26T06:21:54;95983.94;;;-2.07;100.00
11038;BME280;5572;49.540;11.932;2023-02-26T06:24:22;95980.75;;;-1.97;100.00
11038;BME280;5572;49.540;11.932;2023-02-26T06:26:48;95991.00;;;-1.89;100.00
11038;BME280;5572;49.540;11.932;2023-02-26T06:29:15;95991.81;;;-1.89;100.00
11038;BME280;5572;49.540;11.932;2023-02-26T06:31:45;95992.97;;;-1.85;100.00
11038;BME280;5572;49.540;11.932;2023-02-26T06:34:12;95997.16;;;-1.66;100.00
11038;BME280;5572;49.540;11.932;2023-02-26T06:36:38;96001.69;;;-1.55;100.00
11038;BME280;5572;49.540;11.932;2023-02-26T06:39:05;95998.34;;;-1.51;100.00
11038;BME280;5572;49.540;11.932;2023-02-26T06:41:33;96003.09;;;-1.41;100.00
11038;BME280;5572;49.540;11.932;2023-02-26T06:44:00;96003.53;;;-1.44;100.00
11038;BME280;5572;49.540;11.932;2023-02-26T06:46:26;95993.50;;;-1.54;100.00
11038;BME280;5572;49.540;11.932;2023-02-26T06:48:53;96017.97;;;-1.29;100.00
11038;BME280;5572;49.540;11.932;2023-02-26T06:51:19;96004.47;;;-1.39;100.00
11038;BME280;5572;49.540;11.932;2023-02-26T06:53:46;96012.19;;;-1.37;100.00
11038;BME280;5572;49.540;11.932;2023-02-26T06:56:13;96029.25;;;-1.22;100.00
11038;BME280;5572;49.540;11.932;2023-02-26T06:58:40;96031.34;;;-1.12;100.00
11038;BME280;5572;49.540;11.932;2023-02-26T07:01:07;96043.78;;;-0.79;100.00
11038;BME280;5572;49.540;11.932;2023-02-26T07:03:34;96017.28;;;-0.90;100.00
11038;BME280;5572;49.540;11.932;2023-02-26T07:06:01;96034.09;;;-0.62;100.00
11038;BME280;5572;49.540;11.932;2023-02-26T07:08:27;96006.19;;;-0.76;100.00
11038;BME280;5572;49.540;11.932;2023-02-26T07:10:54;96035.47;;;-0.59;100.00
11038;BME280;5572;49.540;11.932;2023-02-26T07:13:21;96042.09;;;-0.34;100.00
11038;BME280;5572;49.540;11.932;2023-02-26T07:15:48;96029.44;;;-0.55;100.00
11038;BME280;5572;49.540;11.932;2023-02-26T07:18:15;96042.94;;;-0.45;100.00
11038;BME280;5572;49.540;11.932;2023-02-26T07:20:42;96042.16;;;-0.45;100.00
11038;BME280;5572;49.540;11.932;2023-02-26T07:23:10;96035.66;;;-0.38;100.00
11038;BME280;5572;49.540;11.932;2023-02-26T07:25:37;96061.06;;;-0.03;100.00
11038;BME280;5572;49.540;11.932;2023-02-26T07:28:04;96065.09;;;-0.39;100.00
11038;BME280;5572;49.540;11.932;2023-02-26T07:30:31;96076.41;;;-0.04;100.00
11038;BME280;5572;49.540;11.932;2023-02-26T07:32:59;96101.44;;;-0.28;100.00
11038;BME280;5572;49.540;11.932;2023-02-26T07:35:27;96114.13;;;2.17;100.00
11038;BME280;5572;49.540;11.932;2023-02-26T07:37:56;96100.53;;;1.76;100.00
11038;BME280;5572;49.540;11.932;2023-02-26T07:40:22;96125.81;;;1.73;100.00
11038;BME280;5572;49.540;11.932;2023-02-26T07:42:49;96137.44;;;2.69;100.00
11038;BME280;5572;49.540;11.932;2023-02-26T07:45:15;96121.44;;;4.66;100.00
11038;BME280;5572;49.540;11.932;2023-02-26T07:47:46;96164.19;;;3.95;100.00
11038;BME280;5572;49.540;11.932;2023-02-26T07:50:14;96157.22;;;4.45;100.00
11038;BME280;5572;49.540;11.932;2023-02-26T07:52:41;96208.13;;;4.55;100.00
11038;BME280;5572;49.540;11.932;2023-02-26T07:55:08;96204.38;;;5.27;100.00
11038;BME280;5572;49.540;11.932;2023-02-26T07:57:35;96304.81;;;3.69;100.00
11038;BME280;5572;49.540;11.932;2023-02-26T08:00:02;96353.47;;;0.76;100.00
11038;BME280;5572;49.540;11.932;2023-02-26T08:02:30;96398.13;;;0.74;100.00
11038;BME280;5572;49.540;11.932;2023-02-26T08:04:56;96451.81;;;0.19;100.00
11038;BME280;5572;49.540;11.932;2023-02-26T08:07:24;96487.03;;;-0.15;100.00
11038;BME280;5572;49.540;11.932;2023-02-26T08:09:51;96489.34;;;0.22;100.00
11038;BME280;5572;49.540;11.932;2023-02-26T08:12:17;96526.53;;;-0.07;100.00
11038;BME280;5572;49.540;11.932;2023-02-26T08:14:44;96515.69;;;0.24;100.00
11038;BME280;5572;49.540;11.932;2023-02-26T08:17:11;96528.22;;;0.35;100.00
11038;BME280;5572;49.540;11.932;2023-02-26T08:19:38;96545.66;;;0.01;100.00
11038;BME280;5572;49.540;11.932;2023-02-26T08:22:05;96563.56;;;0.06;100.00
11038;BME280;5572;49.540;11.932;2023-02-26T08:24:33;96563.72;;;0.40;100.00
11038;BME280;5572;49.540;11.932;2023-02-26T08:26:59;96595.38;;;0.12;100.00
11038;BME280;5572;49.540;11.932;2023-02-26T08:29:26;96590.69;;;0.26;100.00
11038;BME280;5572;49.540;11.932;2023-02-26T08:31:53;96586.97;;;0.56;100.00
11038;BME280;5572;49.540;11.932;2023-02-26T08:34:19;96594.19;;;0.67;100.00
11038;BME280;5572;49.540;11.932;2023-02-26T08:36:46;96590.50;;;0.68;100.00
11038;BME280;5572;49.540;11.932;2023-02-26T08:39:14;96608.63;;;0.60;100.00
11038;BME280;5572;49.540;11.932;2023-02-26T08:41:42;96606.91;;;0.65;100.00
11038;BME280;5572;49.540;11.932;2023-02-26T08:44:09;96628.81;;;0.49;100.00
11038;BME280;5572;49.540;11.932;2023-02-26T08:46:35;96622.69;;;0.49;100.00
11038;BME280;5572;49.540;11.932;2023-02-26T08:49:02;96612.97;;;0.95;100.00
11038;BME280;5572;49.540;11.932;2023-02-26T08:51:29;96596.63;;;1.44;100.00
11038;BME280;5572;49.540;11.932;2023-02-26T08:53:55;96598.06;;;2.92;100.00
11038;BME280;5572;49.540;11.932;2023-02-26T08:56:22;96615.97;;;1.73;100.00
11038;BME280;5572;49.540;11.932;2023-02-26T08:58:50;96628.34;;;1.34;100.00
11038;BME280;5572;49.540;11.932;2023-02-26T09:01:16;96648.91;;;1.04;100.00
11038;BME280;5572;49.540;11.932;2023-02-26T09:03:43;96673.81;;;1.21;100.00
11038;BME280;5572;49.540;11.932;2023-02-26T09:06:09;96675.25;;;1.46;100.00
11038;BME280;5572;49.540;11.932;2023-02-26T09:08:36;96730.94;;;0.42;100.00
11038;BME280;5572;49.540;11.932;2023-02-26T09:11:03;96733.91;;;1.40;100.00
11038;BME280;5572;49.540;11.932;2023-02-26T09:13:30;96721.34;;;1.58;100.00
11038;BME280;5572;49.540;11.932;2023-02-26T09:15:58;96731.91;;;1.76;100.00
11038;BME280;5572;49.540;11.932;2023-02-26T09:18:24;96761.19;;;1.65;100.00
11038;BME280;5572;49.540;11.932;2023-02-26T09:20:51;96715.59;;;2.97;100.00
11038;BME280;5572;49.540;11.932;2023-02-26T09:23:18;96724.91;;;2.94;100.00
11038;BME280;5572;49.540;11.932;2023-02-26T09:25:44;96756.75;;;2.73;100.00
11038;BME280;5572;49.540;11.932;2023-02-26T09:28:11;96819.63;;;1.48;100.00
11038;BME280;5572;49.540;11.932;2023-02-26T09:30:37;96852.88;;;1.28;100.00
11038;BME280;5572;49.540;11.932;2023-02-26T09:33:05;96876.97;;;1.15;100.00
11038;BME280;5572;49.540;11.932;2023-02-26T09:35:33;96897.38;;;1.21;100.00
11038;BME280;5572;49.540;11.932;2023-02-26T09:38:00;96927.84;;;0.89;100.00
11038;BME280;5572;49.540;11.932;2023-02-26T09:40:36;96962.19;;;0.90;100.00
11038;BME280;5572;49.540;11.932;2023-02-26T09:43:18;96986.47;;;0.76;100.00
11038;BME280;5572;49.540;11.932;2023-02-26T09:45:48;96997.97;;;0.94;100.00
11038;BME280;5572;49.540;11.932;2023-02-26T09:48:19;97023.94;;;0.99;100.00
11038;BME280;5572;49.540;11.932;2023-02-26T09:50:50;97031.66;;;0.82;100.00
11038;BME280;5572;49.540;11.932;2023-02-26T09:53:21;97049.00;;;0.85;100.00
11038;BME280;5572;49.540;11.932;2023-02-26T09:55:49;97055.88;;;0.99;100.00
11038;BME280;5572;49.540;11.932;2023-02-26T09:58:21;97079.16;;;0.79;100.00
11038;BME280;5572;49.540;11.932;2023-02-26T10:00:55;97068.03;;;1.13;100.00
11038;BME280;5572;49.540;11.932;2023-02-26T10:03:29;97080.09;;;1.15;100.00
11038;BME280;5572;49.540;11.932;2023-02-26T10:06:16;97098.00;;;1.02;100.00
11038;BME280;5572;49.540;11.932;2023-02-26T10:09:01;97093.88;;;1.30;100.00
11038;BME280;5572;49.540;11.932;2023-02-26T10:11:35;97099.41;;;0.80;100.00
11038;BME280;5572;49.540;11.932;2023-02-26T10:14:10;97095.25;;;1.39;100.00
11038;BME280;5572;49.540;11.932;2023-02-26T10:16:41;97105.06;;;1.14;100.00
11038;BME280;5572;49.540;11.932;2023-02-26T10:19:11;97149.22;;;0.97;100.00
11038;BME280;5572;49.540;11.932;2023-02-26T10:21:44;97149.00;;;0.99;100.00
11038;BME280;5572;49.540;11.932;2023-02-26T10:24:14;97177.06;;;0.64;100.00
11038;BME280;5572;49.540;11.932;2023-02-26T10:26:49;97171.63;;;0.83;100.00
11038;BME280;5572;49.540;11.932;2023-02-26T10:29:20;97178.53;;;0.54;100.00
11038;BME280;5572;49.540;11.932;2023-02-26T10:31:56;97168.91;;;0.90;100.00
11038;BME280;5572;49.540;11.932;2023-02-26T10:34:30;97148.66;;;0.89;100.00
11038;BME280;5572;49.540;11.932;2023-02-26T10:37:04;97134.06;;;0.98;100.00
11038;BME280;5572;49.540;11.932;2023-02-26T10:39:38;97142.28;;;1.21;100.00
11038;BME280;5572;49.540;11.932;2023-02-26T10:42:12;97138.53;;;1.28;100.00
11038;BME280;5572;49.540;11.932;2023-02-26T10:44:44;97147.66;;;1.39;100.00
11038;BME280;5572;49.540;11.932;2023-02-26T10:47:20;97177.16;;;1.13;100.00
11038;BME280;5572;49.540;11.932;2023-02-26T10:49:53;97129.59;;;1.65;100.00
11038;BME280;5572;49.540;11.932;2023-02-26T10:52:22;97145.59;;;1.65;100.00
11038;BME280;5572;49.540;11.932;2023-02-26T10:55:03;97154.56;;;1.46;100.00
11038;BME280;5572;49.540;11.932;2023-02-26T10:57:34;97134.06;;;2.07;100.00
11038;BME280;5572;49.540;11.932;2023-02-26T11:00:03;97137.25;;;1.97;100.00
11038;BME280;5572;49.540;11.932;2023-02-26T11:02:35;97146.13;;;1.73;100.00
11038;BME280;5572;49.540;11.932;2023-02-26T11:05:05;97156.72;;;1.56;100.00
11038;BME280;5572;49.540;11.932;2023-02-26T11:07:35;97149.66;;;1.67;100.00
11038;BME280;5572;49.540;11.932;2023-02-26T11:10:05;97175.53;;;1.61;100.00
11038;BME280;5572;49.540;11.932;2023-02-26T11:12:38;97175.44;;;2.45;100.00
11038;BME280;5572;49.540;11.932;2023-02-26T11:15:12;97155.66;;;3.11;100.00
11038;BME280;5572;49.540;11.932;2023-02-26T11:17:39;97155.03;;;3.38;100.00
11038;BME280;5572;49.540;11.932;2023-02-26T11:20:15;97197.31;;;3.01;100.00
11038;BME280;5572;49.540;11.932;2023-02-26T11:22:46;97217.09;;;2.64;100.00
11038;BME280;5572;49.540;11.932;2023-02-26T11:25:16;97206.19;;;2.95;100.00
11038;BME280;5572;49.540;11.932;2023-02-26T11:27:43;97231.25;;;2.64;100.00
11038;BME280;5572;49.540;11.932;2023-02-26T11:30:15;97278.94;;;2.19;100.00
11038;BME280;5572;49.540;11.932;2023-02-26T11:32:45;97289.81;;;2.17;100.00
11038;BME280;5572;49.540;11.932;2023-02-26T11:35:18;97293.78;;;2.33;100.00
11038;BME280;5572;49.540;11.932;2023-02-26T11:37:47;97339.06;;;1.90;100.00
11038;BME280;5572;49.540;11.932;2023-02-26T11:40:16;97349.41;;;2.29;100.00
11038;BME280;5572;49.540;11.932;2023-02-26T11:42:48;97382.16;;;2.12;100.00
11038;BME280;5572;49.540;11.932;2023-02-26T11:45:19;97362.97;;;2.70;100.00
11038;BME280;5572;49.540;11.932;2023-02-26T11:47:48;97387.00;;;2.88;100.00
11038;BME280;5572;49.540;11.932;2023-02-26T11:50:19;97391.09;;;3.26;100.00
11038;BME280;5572;49.540;11.932;2023-02-26T11:52:54;97421.81;;;2.99;100.00
11038;BME280;5572;49.540;11.932;2023-02-26T11:55:38;97456.59;;;2.68;100.00
11038;BME280;5572;49.540;11.932;2023-02-26T11:58:45;97492.97;;;2.39;100.00
11038;BME280;5572;49.540;11.932;2023-02-26T12:01:26;97539.38;;;2.31;100.00
11038;BME280;5572;49.540;11.932;2023-02-26T12:03:57;97542.66;;;1.89;100.00
11038;BME280;5572;49.540;11.932;2023-02-26T12:06:26;97534.47;;;2.22;100.00
11038;BME280;5572;49.540;11.932;2023-02-26T12:08:53;97518.72;;;2.51;100.00
11038;BME280;5572;49.540;11.932;2023-02-26T12:11:38;97553.41;;;2.82;100.00
11038;BME280;5572;49.540;11.932;2023-02-26T12:14:21;97577.81;;;2.85;100.00
11038;BME280;5572;49.540;11.932;2023-02-26T12:17:13;97562.34;;;2.94;100.00
11038;BME280;5572;49.540;11.932;2023-02-26T12:20:43;97601.66;;;3.05;100.00
11038;BME280;5572;49.540;11.932;2023-02-26T12:23:27;97605.97;;;3.06;100.00
11038;BME280;5572;49.540;11.932;2023-02-26T12:26:09;97638.88;;;2.69;100.00
11038;BME280;5572;49.540;11.932;2023-02-26T12:29:07;97672.78;;;2.12;100.00
11038;BME280;5572;49.540;11.932;2023-02-26T12:31:58;97687.56;;;2.01;100.00
11038;BME280;5572;49.540;11.932;2023-02-26T12:34:42;97675.25;;;2.07;100.00
11038;BME280;5572;49.540;11.932;2023-02-26T12:37:27;97708.28;;;2.06;100.00
11038;BME280;5572;49.540;11.932;2023-02-26T12:40:10;97741.09;;;1.67;100.00
11038;BME280;5572;49.540;11.932;2023-02-26T12:42:50;97742.34;;;1.65;100.00
11038;BME280;5572;49.540;11.932;2023-02-26T12:45:26;97725.09;;;2.00;100.00
11038;BME280;5572;49.540;11.932;2023-02-26T12:48:13;97738.41;;;2.06;100.00
11038;BME280;5572;49.540;11.932;2023-02-26T12:50:52;97727.91;;;2.31;100.00
11038;BME280;5572;49.540;11.932;2023-02-26T12:56:36;97740.06;;;2.77;100.00
11038;BME280;5572;49.540;11.932;2023-02-26T12:59:16;97791.13;;;2.11;100.00
11038;BME280;5572;49.540;11.932;2023-02-26T13:02:01;97828.03;;;2.01;100.00
11038;BME280;5572;49.540;11.932;2023-02-26T13:04:59;97870.81;;;1.54;100.00
11038;BME280;5572;49.540;11.932;2023-02-26T13:07:50;97893.66;;;1.82;100.00
11038;BME280;5572;49.540;11.932;2023-02-26T13:10:25;97919.16;;;1.51;100.00
11038;BME280;5572;49.540;11.932;2023-02-26T13:13:09;97944.75;;;1.46;100.00
11038;BME280;5572;49.540;11.932;2023-02-26T13:15:50;97947.06;;;1.55;100.00
11038;BME280;5572;49.540;11.932;2023-02-26T13:18:23;97930.72;;;1.65;100.00
11038;BME280;5572;49.540;11.932;2023-02-26T13:20:56;97931.84;;;2.73;100.00
11038;BME280;5572;49.540;11.932;2023-02-26T13:23:29;97845.41;;;3.31;100.00